sensor_id;sensor_type;location;lat;lon;timestamp;P1;durP1;ratioP1;P2;durP2;ratioP2
35576;SDS011;21680;52.400;16.920;2023-05-23T00:00:53;11.90;;;4.40;;
35576;SDS011;21680;52.400;16.920;2023-05-23T00:03:18;9.20;;;5.10;;
35576;SDS011;21680;52.400;16.920;2023-05-23T00:05:46;7.20;;;4.40;;
35576;SDS011;21680;52.400;16.920;2023-05-23T00:08:12;8.80;;;5.10;;
35576;SDS011;21680;52.400;16.920;2023-05-23T00:10:38;8.50;;;5.30;;
35576;SDS011;21680;52.400;16.920;2023-05-23T00:13:03;7.50;;;4.50;;
35576;SDS011;21680;52.400;16.920;2023-05-23T00:15:29;9.10;;;4.60;;
35576;SDS011;21680;52.400;16.920;2023-05-23T00:17:55;8.30;;;4.60;;
35576;SDS011;21680;52.400;16.920;2023-05-23T00:20:20;7.70;;;5.00;;
35576;SDS011;21680;52.400;16.920;2023-05-23T00:22:45;10.00;;;4.90;;
35576;SDS011;21680;52.400;16.920;2023-05-23T00:25:12;8.10;;;5.00;;
35576;SDS011;21680;52.400;16.920;2023-05-23T00:27:37;10.30;;;5.00;;
35576;SDS011;21680;52.400;16.920;2023-05-23T00:30:03;8.60;;;4.30;;
35576;SDS011;21680;52.400;16.920;2023-05-23T00:32:28;10.70;;;5.00;;
35576;SDS011;21680;52.400;16.920;2023-05-23T00:34:54;15.20;;;5.20;;
35576;SDS011;21680;52.400;16.920;2023-05-23T00:37:20;7.70;;;5.30;;
35576;SDS011;21680;52.400;16.920;2023-05-23T00:39:46;7.90;;;4.70;;
35576;SDS011;21680;52.400;16.920;2023-05-23T00:42:12;9.20;;;4.70;;
35576;SDS011;21680;52.400;16.920;2023-05-23T00:44:37;7.80;;;4.50;;
35576;SDS011;21680;52.400;16.920;2023-05-23T00:47:02;7.10;;;5.10;;
35576;SDS011;21680;52.400;16.920;2023-05-23T00:49:30;9.50;;;6.00;;
35576;SDS011;21680;52.400;16.920;2023-05-23T00:51:56;12.60;;;5.50;;
35576;SDS011;21680;52.400;16.920;2023-05-23T00:54:25;11.10;;;4.80;;
35576;SDS011;21680;52.400;16.920;2023-05-23T00:56:53;10.60;;;5.90;;
35576;SDS011;21680;52.400;16.920;2023-05-23T00:59:19;9.90;;;5.70;;
35576;SDS011;21680;52.400;16.920;2023-05-23T01:01:47;9.40;;;5.60;;
35576;SDS011;21680;52.400;16.920;2023-05-23T01:04:14;9.20;;;5.70;;
35576;SDS011;21680;52.400;16.920;2023-05-23T01:06:40;10.60;;;6.20;;
35576;SDS011;21680;52.400;16.920;2023-05-23T01:09:11;8.90;;;4.90;;
35576;SDS011;21680;52.400;16.920;2023-05-23T01:11:46;10.80;;;6.10;;
35576;SDS011;21680;52.400;16.920;2023-05-23T01:14:37;9.20;;;5.50;;
35576;SDS011;21680;52.400;16.920;2023-05-23T01:17:10;9.80;;;5.10;;
35576;SDS011;21680;52.400;16.920;2023-05-23T01:19:48;8.50;;;5.20;;
35576;SDS011;21680;52.400;16.920;2023-05-23T01:25:27;11.30;;;5.60;;
35576;SDS011;21680;52.400;16.920;2023-05-23T01:28:09;9.90;;;5.60;;
35576;SDS011;21680;52.400;16.920;2023-05-23T01:30:38;12.00;;;5.20;;
35576;SDS011;21680;52.400;16.920;2023-05-23T01:33:05;9.50;;;5.70;;
35576;SDS011;21680;52.400;16.920;2023-05-23T01:35:32;10.60;;;5.30;;
35576;SDS011;21680;52.400;16.920;2023-05-23T01:37:57;11.20;;;5.90;;
35576;SDS011;21680;52.400;16.920;2023-05-23T01:40:23;10.80;;;5.60;;
35576;SDS011;21680;52.400;16.920;2023-05-23T01:42:50;8.10;;;5.40;;
35576;SDS011;21680;52.400;16.920;2023-05-23T01:45:16;8.70;;;5.80;;
35576;SDS011;21680;52.400;16.920;2023-05-23T01:47:42;10.00;;;5.70;;
35576;SDS011;21680;52.400;16.920;2023-05-23T01:50:09;11.20;;;5.00;;
35576;SDS011;21680;52.400;16.920;2023-05-23T01:52:36;12.10;;;5.50;;
35576;SDS011;21680;52.400;16.920;2023-05-23T01:55:02;9.40;;;5.30;;
35576;SDS011;21680;52.400;16.920;2023-05-23T01:57:34;9.90;;;5.40;;
35576;SDS011;21680;52.400;16.920;2023-05-23T02:00:04;6.30;;;5.00;;
35576;SDS011;21680;52.400;16.920;2023-05-23T02:02:31;9.30;;;5.90;;
35576;SDS011;21680;52.400;16.920;2023-05-23T02:04:58;11.00;;;5.70;;
35576;SDS011;21680;52.400;16.920;2023-05-23T02:07:23;14.00;;;5.80;;
35576;SDS011;21680;52.400;16.920;2023-05-23T02:09:48;18.10;;;6.10;;
35576;SDS011;21680;52.400;16.920;2023-05-23T02:12:14;15.30;;;5.80;;
35576;SDS011;21680;52.400;16.920;2023-05-23T02:14:39;10.60;;;5.60;;
35576;SDS011;21680;52.400;16.920;2023-05-23T02:17:06;11.40;;;5.80;;
35576;SDS011;21680;52.400;16.920;2023-05-23T02:19:34;10.90;;;5.80;;
35576;SDS011;21680;52.400;16.920;2023-05-23T02:22:00;11.60;;;5.50;;
35576;SDS011;21680;52.400;16.920;2023-05-23T02:24:25;13.50;;;6.00;;
35576;SDS011;21680;52.400;16.920;2023-05-23T02:26:51;15.10;;;5.50;;
35576;SDS011;21680;52.400;16.920;2023-05-23T02:29:17;9.80;;;5.70;;
35576;SDS011;21680;52.400;16.920;2023-05-23T02:31:42;10.00;;;5.90;;
35576;SDS011;21680;52.400;16.920;2023-05-23T02:34:08;9.70;;;5.60;;
35576;SDS011;21680;52.400;16.920;2023-05-23T02:36:33;8.00;;;5.90;;
35576;SDS011;21680;52.400;16.920;2023-05-23T02:39:01;15.60;;;5.60;;
35576;SDS011;21680;52.400;16.920;2023-05-23T02:41:27;8.70;;;5.90;;
35576;SDS011;21680;52.400;16.920;2023-05-23T02:43:53;9.10;;;5.70;;
35576;SDS011;21680;52.400;16.920;2023-05-23T02:46:18;11.60;;;6.20;;
35576;SDS011;21680;52.400;16.920;2023-05-23T02:48:44;10.30;;;6.10;;
35576;SDS011;21680;52.400;16.920;2023-05-23T02:51:09;8.70;;;6.00;;
35576;SDS011;21680;52.400;16.920;2023-05-23T02:53:34;10.00;;;6.10;;
35576;SDS011;21680;52.400;16.920;2023-05-23T02:56:00;9.50;;;6.00;;
35576;SDS011;21680;52.400;16.920;2023-05-23T02:58:25;10.00;;;5.70;;
35576;SDS011;21680;52.400;16.920;2023-05-23T03:00:51;10.70;;;6.20;;
35576;SDS011;21680;52.400;16.920;2023-05-23T03:03:16;9.20;;;5.50;;
35576;SDS011;21680;52.400;16.920;2023-05-23T03:05:41;12.90;;;5.30;;
35576;SDS011;21680;52.400;16.920;2023-05-23T03:08:06;11.40;;;6.30;;
35576;SDS011;21680;52.400;16.920;2023-05-23T03:10:32;12.20;;;5.80;;
35576;SDS011;21680;52.400;16.920;2023-05-23T03:12:57;15.30;;;5.90;;
35576;SDS011;21680;52.400;16.920;2023-05-23T03:15:23;9.20;;;5.80;;
35576;SDS011;21680;52.400;16.920;2023-05-23T03:17:48;9.20;;;5.40;;
35576;SDS011;21680;52.400;16.920;2023-05-23T03:20:13;10.60;;;6.70;;
35576;SDS011;21680;52.400;16.920;2023-05-23T03:22:39;9.90;;;6.00;;
35576;SDS011;21680;52.400;16.920;2023-05-23T03:25:07;11.40;;;6.80;;
35576;SDS011;21680;52.400;16.920;2023-05-23T03:27:33;10.20;;;6.10;;
35576;SDS011;21680;52.400;16.920;2023-05-23T03:29:58;12.10;;;5.90;;
35576;SDS011;21680;52.400;16.920;2023-05-23T03:32:23;10.50;;;6.50;;
35576;SDS011;21680;52.400;16.920;2023-05-23T03:34:49;9.10;;;5.60;;
35576;SDS011;21680;52.400;16.920;2023-05-23T03:37:14;12.20;;;6.60;;
35576;SDS011;21680;52.400;16.920;2023-05-23T03:39:39;19.50;;;6.80;;
35576;SDS011;21680;52.400;16.920;2023-05-23T03:42:04;12.10;;;6.70;;
35576;SDS011;21680;52.400;16.920;2023-05-23T03:44:30;11.60;;;6.30;;
35576;SDS011;21680;52.400;16.920;2023-05-23T03:46:55;12.80;;;6.30;;
35576;SDS011;21680;52.400;16.920;2023-05-23T03:49:21;13.50;;;6.50;;
35576;SDS011;21680;52.400;16.920;2023-05-23T03:51:46;10.30;;;6.50;;
35576;SDS011;21680;52.400;16.920;2023-05-23T03:54:11;17.60;;;6.50;;
35576;SDS011;21680;52.400;16.920;2023-05-23T03:56:36;14.30;;;6.50;;
35576;SDS011;21680;52.400;16.920;2023-05-23T03:59:01;14.00;;;6.00;;
35576;SDS011;21680;52.400;16.920;2023-05-23T04:01:27;13.40;;;6.70;;
35576;SDS011;21680;52.400;16.920;2023-05-23T04:03:52;13.50;;;5.60;;
35576;SDS011;21680;52.400;16.920;2023-05-23T04:06:17;9.90;;;6.70;;
35576;SDS011;21680;52.400;16.920;2023-05-23T04:08:44;10.70;;;7.00;;
35576;SDS011;21680;52.400;16.920;2023-05-23T04:11:09;13.50;;;6.80;;
35576;SDS011;21680;52.400;16.920;2023-05-23T04:13:35;14.80;;;6.80;;
35576;SDS011;21680;52.400;16.920;2023-05-23T04:16:01;13.80;;;7.00;;
35576;SDS011;21680;52.400;16.920;2023-05-23T04:18:30;11.90;;;6.90;;
35576;SDS011;21680;52.400;16.920;2023-05-23T04:20:57;11.60;;;6.60;;
35576;SDS011;21680;52.400;16.920;2023-05-23T04:23:23;18.80;;;7.30;;
35576;SDS011;21680;52.400;16.920;2023-05-23T04:25:48;17.10;;;7.10;;
35576;SDS011;21680;52.400;16.920;2023-05-23T04:28:13;12.50;;;7.10;;
35576;SDS011;21680;52.400;16.920;2023-05-23T04:30:41;12.20;;;7.30;;
35576;SDS011;21680;52.400;16.920;2023-05-23T04:33:06;16.00;;;6.40;;
35576;SDS011;21680;52.400;16.920;2023-05-23T04:35:32;16.00;;;7.30;;
35576;SDS011;21680;52.400;16.920;2023-05-23T04:37:58;12.20;;;7.00;;
35576;SDS011;21680;52.400;16.920;2023-05-23T04:40:23;14.50;;;6.40;;
35576;SDS011;21680;52.400;16.920;2023-05-23T04:42:48;13.10;;;7.30;;
35576;SDS011;21680;52.400;16.920;2023-05-23T04:45:15;22.20;;;7.60;;
35576;SDS011;21680;52.400;16.920;2023-05-23T04:47:41;15.70;;;6.90;;
35576;SDS011;21680;52.400;16.920;2023-05-23T04:50:09;21.10;;;7.80;;
35576;SDS011;21680;52.400;16.920;2023-05-23T04:52:35;11.80;;;7.00;;
35576;SDS011;21680;52.400;16.920;2023-05-23T04:55:00;14.90;;;7.00;;
35576;SDS011;21680;52.400;16.920;2023-05-23T04:57:26;14.50;;;6.40;;
35576;SDS011;21680;52.400;16.920;2023-05-23T04:59:51;11.50;;;6.80;;
35576;SDS011;21680;52.400;16.920;2023-05-23T05:02:16;18.90;;;8.20;;
35576;SDS011;21680;52.400;16.920;2023-05-23T05:04:41;14.50;;;7.10;;
35576;SDS011;21680;52.400;16.920;2023-05-23T05:07:07;12.20;;;6.20;;
35576;SDS011;21680;52.400;16.920;2023-05-23T05:09:32;11.70;;;6.50;;
35576;SDS011;21680;52.400;16.920;2023-05-23T05:11:57;10.70;;;6.40;;
35576;SDS011;21680;52.400;16.920;2023-05-23T05:14:24;19.90;;;8.00;;
35576;SDS011;21680;52.400;16.920;2023-05-23T05:16:50;12.30;;;7.20;;
35576;SDS011;21680;52.400;16.920;2023-05-23T05:19:16;12.80;;;6.60;;
35576;SDS011;21680;52.400;16.920;2023-05-23T05:21:41;12.20;;;6.00;;
35576;SDS011;21680;52.400;16.920;2023-05-23T05:24:07;13.50;;;7.00;;
35576;SDS011;21680;52.400;16.920;2023-05-23T05:26:34;12.40;;;6.40;;
35576;SDS011;21680;52.400;16.920;2023-05-23T05:29:01;11.10;;;6.50;;
35576;SDS011;21680;52.400;16.920;2023-05-23T05:31:26;11.20;;;6.20;;
35576;SDS011;21680;52.400;16.920;2023-05-23T05:33:53;12.30;;;6.20;;
35576;SDS011;21680;52.400;16.920;2023-05-23T05:36:18;14.10;;;6.70;;
35576;SDS011;21680;52.400;16.920;2023-05-23T05:38:44;11.70;;;6.00;;
35576;SDS011;21680;52.400;16.920;2023-05-23T05:41:09;12.20;;;6.30;;
35576;SDS011;21680;52.400;16.920;2023-05-23T05:43:35;12.00;;;6.40;;
35576;SDS011;21680;52.400;16.920;2023-05-23T05:46:00;13.70;;;6.10;;
35576;SDS011;21680;52.400;16.920;2023-05-23T05:48:25;11.80;;;6.20;;
35576;SDS011;21680;52.400;16.920;2023-05-23T05:50:51;10.90;;;6.00;;
35576;SDS011;21680;52.400;16.920;2023-05-23T05:53:16;11.50;;;6.20;;
35576;SDS011;21680;52.400;16.920;2023-05-23T05:55:41;15.30;;;6.90;;
35576;SDS011;21680;52.400;16.920;2023-05-23T05:58:07;9.80;;;6.40;;
35576;SDS011;21680;52.400;16.920;2023-05-23T06:00:32;10.40;;;5.30;;
35576;SDS011;21680;52.400;16.920;2023-05-23T06:02:58;13.20;;;6.20;;
35576;SDS011;21680;52.400;16.920;2023-05-23T06:05:24;12.20;;;6.80;;
35576;SDS011;21680;52.400;16.920;2023-05-23T06:07:50;10.70;;;6.50;;
35576;SDS011;21680;52.400;16.920;2023-05-23T06:10:16;7.30;;;5.50;;
35576;SDS011;21680;52.400;16.920;2023-05-23T06:12:43;13.00;;;6.70;;
35576;SDS011;21680;52.400;16.920;2023-05-23T06:15:09;11.80;;;6.00;;
35576;SDS011;21680;52.400;16.920;2023-05-23T06:17:38;9.50;;;6.20;;
35576;SDS011;21680;52.400;16.920;2023-05-23T06:20:04;14.40;;;6.30;;
35576;SDS011;21680;52.400;16.920;2023-05-23T06:22:29;12.10;;;6.30;;
35576;SDS011;21680;52.400;16.920;2023-05-23T06:24:55;10.60;;;5.90;;
35576;SDS011;21680;52.400;16.920;2023-05-23T06:27:20;10.50;;;5.90;;
35576;SDS011;21680;52.400;16.920;2023-05-23T06:29:45;10.50;;;5.80;;
35576;SDS011;21680;52.400;16.920;2023-05-23T06:32:11;10.00;;;6.10;;
35576;SDS011;21680;52.400;16.920;2023-05-23T06:34:36;14.50;;;5.70;;
35576;SDS011;21680;52.400;16.920;2023-05-23T06:37:01;11.90;;;5.90;;
35576;SDS011;21680;52.400;16.920;2023-05-23T06:39:26;10.00;;;5.90;;
35576;SDS011;21680;52.400;16.920;2023-05-23T06:41:52;17.10;;;5.30;;
35576;SDS011;21680;52.400;16.920;2023-05-23T06:44:18;14.10;;;5.50;;
35576;SDS011;21680;52.400;16.920;2023-05-23T06:46:46;14.90;;;5.70;;
35576;SDS011;21680;52.400;16.920;2023-05-23T06:49:11;9.30;;;6.40;;
35576;SDS011;21680;52.400;16.920;2023-05-23T06:51:37;12.60;;;6.00;;
35576;SDS011;21680;52.400;16.920;2023-05-23T06:54:03;12.80;;;5.80;;
35576;SDS011;21680;52.400;16.920;2023-05-23T06:56:28;12.30;;;5.70;;
35576;SDS011;21680;52.400;16.920;2023-05-23T06:58:54;9.70;;;5.10;;
35576;SDS011;21680;52.400;16.920;2023-05-23T07:01:19;12.80;;;5.60;;
35576;SDS011;21680;52.400;16.920;2023-05-23T07:03:45;11.80;;;6.00;;
35576;SDS011;21680;52.400;16.920;2023-05-23T07:06:10;15.70;;;5.70;;
35576;SDS011;21680;52.400;16.920;2023-05-23T07:08:36;20.70;;;5.90;;
35576;SDS011;21680;52.400;16.920;2023-05-23T07:11:02;12.90;;;5.70;;
35576;SDS011;21680;52.400;16.920;2023-05-23T07:13:28;11.90;;;5.50;;
35576;SDS011;21680;52.400;16.920;2023-05-23T07:15:54;10.10;;;5.20;;
35576;SDS011;21680;52.400;16.920;2023-05-23T07:18:20;10.40;;;5.40;;
35576;SDS011;21680;52.400;16.920;2023-05-23T07:20:45;13.20;;;5.30;;
35576;SDS011;21680;52.400;16.920;2023-05-23T07:23:11;9.70;;;4.60;;
35576;SDS011;21680;52.400;16.920;2023-05-23T07:25:36;12.80;;;5.50;;
35576;SDS011;21680;52.400;16.920;2023-05-23T07:28:01;9.20;;;5.00;;
35576;SDS011;21680;52.400;16.920;2023-05-23T07:30:26;15.00;;;5.50;;
35576;SDS011;21680;52.400;16.920;2023-05-23T07:32:52;9.70;;;5.60;;
35576;SDS011;21680;52.400;16.920;2023-05-23T07:35:17;10.50;;;4.90;;
35576;SDS011;21680;52.400;16.920;2023-05-23T07:37:48;11.80;;;4.70;;
35576;SDS011;21680;52.400;16.920;2023-05-23T07:40:13;11.10;;;5.10;;
35576;SDS011;21680;52.400;16.920;2023-05-23T07:42:39;10.90;;;4.50;;
35576;SDS011;21680;52.400;16.920;2023-05-23T07:45:04;12.30;;;5.60;;
35576;SDS011;21680;52.400;16.920;2023-05-23T07:47:30;8.50;;;4.70;;
35576;SDS011;21680;52.400;16.920;2023-05-23T07:49:55;9.20;;;5.00;;
35576;SDS011;21680;52.400;16.920;2023-05-23T07:52:21;8.60;;;4.70;;
35576;SDS011;21680;52.400;16.920;2023-05-23T07:54:47;11.60;;;5.90;;
35576;SDS011;21680;52.400;16.920;2023-05-23T07:57:13;12.50;;;4.30;;
35576;SDS011;21680;52.400;16.920;2023-05-23T07:59:40;10.90;;;5.20;;
35576;SDS011;21680;52.400;16.920;2023-05-23T08:02:06;14.30;;;5.60;;
35576;SDS011;21680;52.400;16.920;2023-05-23T08:04:31;10.40;;;5.20;;
35576;SDS011;21680;52.400;16.920;2023-05-23T08:06:57;12.40;;;5.10;;
35576;SDS011;21680;52.400;16.920;2023-05-23T08:09:24;12.00;;;5.20;;
35576;SDS011;21680;52.400;16.920;2023-05-23T08:11:49;10.80;;;5.00;;
35576;SDS011;21680;52.400;16.920;2023-05-23T08:14:15;13.50;;;4.70;;
35576;SDS011;21680;52.400;16.920;2023-05-23T08:16:40;15.60;;;4.90;;
35576;SDS011;21680;52.400;16.920;2023-05-23T08:19:05;15.70;;;4.70;;
35576;SDS011;21680;52.400;16.920;2023-05-23T08:21:31;17.30;;;5.20;;
35576;SDS011;21680;52.400;16.920;2023-05-23T08:23:56;10.90;;;4.20;;
35576;SDS011;21680;52.400;16.920;2023-05-23T08:26:23;9.40;;;4.60;;
35576;SDS011;21680;52.400;16.920;2023-05-23T08:28:48;12.00;;;4.60;;
35576;SDS011;21680;52.400;16.920;2023-05-23T08:31:13;14.80;;;4.10;;
35576;SDS011;21680;52.400;16.920;2023-05-23T08:33:39;21.60;;;5.30;;
35576;SDS011;21680;52.400;16.920;2023-05-23T08:36:05;10.70;;;4.10;;
35576;SDS011;21680;52.400;16.920;2023-05-23T08:38:30;15.80;;;4.90;;
35576;SDS011;21680;52.400;16.920;2023-05-23T08:40:55;13.50;;;4.50;;
35576;SDS011;21680;52.400;16.920;2023-05-23T08:43:25;11.80;;;4.10;;
35576;SDS011;21680;52.400;16.920;2023-05-23T08:45:50;11.20;;;4.20;;
35576;SDS011;21680;52.400;16.920;2023-05-23T08:48:16;9.50;;;3.90;;
35576;SDS011;21680;52.400;16.920;2023-05-23T08:50:44;11.70;;;3.70;;
35576;SDS011;21680;52.400;16.920;2023-05-23T08:53:13;7.60;;;3.50;;
35576;SDS011;21680;52.400;16.920;2023-05-23T08:55:44;13.10;;;4.30;;
35576;SDS011;21680;52.400;16.920;2023-05-23T08:58:10;7.10;;;4.30;;
35576;SDS011;21680;52.400;16.920;2023-05-23T09:00:37;9.30;;;4.00;;
35576;SDS011;21680;52.400;16.920;2023-05-23T09:03:03;11.00;;;3.80;;
35576;SDS011;21680;52.400;16.920;2023-05-23T09:05:28;7.20;;;4.00;;
35576;SDS011;21680;52.400;16.920;2023-05-23T09:07:53;8.60;;;3.80;;
35576;SDS011;21680;52.400;16.920;2023-05-23T09:10:19;5.60;;;4.00;;
35576;SDS011;21680;52.400;16.920;2023-05-23T09:12:45;8.10;;;3.90;;
35576;SDS011;21680;52.400;16.920;2023-05-23T09:15:10;10.60;;;3.70;;
35576;SDS011;21680;52.400;16.920;2023-05-23T09:17:36;10.40;;;3.60;;
35576;SDS011;21680;52.400;16.920;2023-05-23T09:20:11;7.50;;;3.60;;
35576;SDS011;21680;52.400;16.920;2023-05-23T09:22:39;6.30;;;3.90;;
35576;SDS011;21680;52.400;16.920;2023-05-23T09:25:04;6.20;;;3.70;;
35576;SDS011;21680;52.400;16.920;2023-05-23T09:27:30;6.10;;;4.00;;
35576;SDS011;21680;52.400;16.920;2023-05-23T09:29:56;7.30;;;4.00;;
35576;SDS011;21680;52.400;16.920;2023-05-23T09:32:21;9.20;;;3.30;;
35576;SDS011;21680;52.400;16.920;2023-05-23T09:35:00;11.80;;;4.50;;
35576;SDS011;21680;52.400;16.920;2023-05-23T09:39:59;6.60;;;4.00;;
35576;SDS011;21680;52.400;16.920;2023-05-23T09:42:30;4.50;;;3.60;;
35576;SDS011;21680;52.400;16.920;2023-05-23T09:44:57;6.10;;;3.20;;
35576;SDS011;21680;52.400;16.920;2023-05-23T09:47:22;8.20;;;3.40;;
35576;SDS011;21680;52.400;16.920;2023-05-23T09:49:48;12.90;;;3.80;;
35576;SDS011;21680;52.400;16.920;2023-05-23T09:52:13;7.90;;;3.30;;
35576;SDS011;21680;52.400;16.920;2023-05-23T09:54:39;6.80;;;3.40;;
35576;SDS011;21680;52.400;16.920;2023-05-23T09:57:06;8.20;;;4.10;;
35576;SDS011;21680;52.400;16.920;2023-05-23T09:59:36;6.80;;;3.60;;
35576;SDS011;21680;52.400;16.920;2023-05-23T10:02:05;6.10;;;3.60;;
35576;SDS011;21680;52.400;16.920;2023-05-23T10:04:33;7.40;;;3.20;;
35576;SDS011;21680;52.400;16.920;2023-05-23T10:07:00;4.60;;;3.00;;
35576;SDS011;21680;52.400;16.920;2023-05-23T10:09:35;13.40;;;4.00;;
35576;SDS011;21680;52.400;16.920;2023-05-23T10:15:06;8.70;;;4.40;;
35576;SDS011;21680;52.400;16.920;2023-05-23T10:20:24;6.80;;;3.60;;
35576;SDS011;21680;52.400;16.920;2023-05-23T10:22:50;5.80;;;3.50;;
35576;SDS011;21680;52.400;16.920;2023-05-23T10:25:16;7.10;;;3.10;;
35576;SDS011;21680;52.400;16.920;2023-05-23T10:27:42;6.90;;;3.90;;
35576;SDS011;21680;52.400;16.920;2023-05-23T10:30:08;8.30;;;3.60;;
35576;SDS011;21680;52.400;16.920;2023-05-23T10:32:38;4.50;;;3.60;;
35576;SDS011;21680;52.400;16.920;2023-05-23T10:37:55;5.50;;;3.10;;
35576;SDS011;21680;52.400;16.920;2023-05-23T10:42:51;5.80;;;3.30;;
35576;SDS011;21680;52.400;16.920;2023-05-23T10:45:23;8.20;;;3.70;;
35576;SDS011;21680;52.400;16.920;2023-05-23T10:47:49;7.70;;;3.60;;
35576;SDS011;21680;52.400;16.920;2023-05-23T10:50:32;7.10;;;3.10;;
35576;SDS011;21680;52.400;16.920;2023-05-23T10:53:00;4.80;;;3.40;;
35576;SDS011;21680;52.400;16.920;2023-05-23T10:55:30;9.10;;;3.40;;
35576;SDS011;21680;52.400;16.920;2023-05-23T10:58:09;6.00;;;4.00;;
35576;SDS011;21680;52.400;16.920;2023-05-23T11:00:52;6.10;;;3.40;;
35576;SDS011;21680;52.400;16.920;2023-05-23T11:03:29;5.50;;;3.70;;
35576;SDS011;21680;52.400;16.920;2023-05-23T11:05:59;7.10;;;3.50;;
35576;SDS011;21680;52.400;16.920;2023-05-23T11:08:25;5.20;;;3.50;;
35576;SDS011;21680;52.400;16.920;2023-05-23T11:10:58;5.70;;;3.00;;
35576;SDS011;21680;52.400;16.920;2023-05-23T11:13:25;15.00;;;3.60;;
35576;SDS011;21680;52.400;16.920;2023-05-23T11:16:30;8.80;;;3.70;;
35576;SDS011;21680;52.400;16.920;2023-05-23T11:21:48;6.80;;;3.20;;
35576;SDS011;21680;52.400;16.920;2023-05-23T11:24:17;9.60;;;3.20;;
35576;SDS011;21680;52.400;16.920;2023-05-23T11:26:50;6.50;;;2.90;;
35576;SDS011;21680;52.400;16.920;2023-05-23T11:29:24;7.80;;;3.10;;
35576;SDS011;21680;52.400;16.920;2023-05-23T11:31:51;6.10;;;3.20;;
35576;SDS011;21680;52.400;16.920;2023-05-23T11:34:16;11.20;;;3.70;;
35576;SDS011;21680;52.400;16.920;2023-05-23T11:36:42;11.90;;;3.50;;
35576;SDS011;21680;52.400;16.920;2023-05-23T11:39:08;11.30;;;3.90;;
35576;SDS011;21680;52.400;16.920;2023-05-23T11:41:34;11.20;;;4.40;;
35576;SDS011;21680;52.400;16.920;2023-05-23T11:44:00;14.50;;;4.50;;
35576;SDS011;21680;52.400;16.920;2023-05-23T11:46:25;8.70;;;4.90;;
35576;SDS011;21680;52.400;16.920;2023-05-23T11:48:51;11.70;;;4.70;;
35576;SDS011;21680;52.400;16.920;2023-05-23T11:51:17;12.30;;;4.10;;
35576;SDS011;21680;52.400;16.920;2023-05-23T11:53:44;10.70;;;5.30;;
35576;SDS011;21680;52.400;16.920;2023-05-23T11:56:10;13.30;;;4.90;;
35576;SDS011;21680;52.400;16.920;2023-05-23T11:58:36;13.80;;;5.60;;
35576;SDS011;21680;52.400;16.920;2023-05-23T12:01:03;11.20;;;5.60;;
35576;SDS011;21680;52.400;16.920;2023-05-23T12:03:33;12.80;;;5.80;;
35576;SDS011;21680;52.400;16.920;2023-05-23T12:06:08;12.20;;;5.50;;
35576;SDS011;21680;52.400;16.920;2023-05-23T12:08:34;9.80;;;6.40;;
35576;SDS011;21680;52.400;16.920;2023-05-23T12:10:59;7.50;;;5.00;;
35576;SDS011;21680;52.400;16.920;2023-05-23T12:13:29;12.50;;;5.70;;
35576;SDS011;21680;52.400;16.920;2023-05-23T12:15:55;11.70;;;6.80;;
35576;SDS011;21680;52.400;16.920;2023-05-23T12:18:26;12.20;;;5.90;;
35576;SDS011;21680;52.400;16.920;2023-05-23T12:20:52;12.30;;;5.80;;
35576;SDS011;21680;52.400;16.920;2023-05-23T12:23:21;12.80;;;6.40;;
35576;SDS011;21680;52.400;16.920;2023-05-23T12:25:53;17.70;;;6.70;;
35576;SDS011;21680;52.400;16.920;2023-05-23T12:28:21;8.70;;;6.20;;
35576;SDS011;21680;52.400;16.920;2023-05-23T12:33:41;24.30;;;7.00;;
35576;SDS011;21680;52.400;16.920;2023-05-23T12:36:13;8.20;;;5.90;;
35576;SDS011;21680;52.400;16.920;2023-05-23T12:38:41;13.20;;;6.80;;
35576;SDS011;21680;52.400;16.920;2023-05-23T12:41:10;10.10;;;6.80;;
35576;SDS011;21680;52.400;16.920;2023-05-23T12:43:39;8.50;;;6.00;;
35576;SDS011;21680;52.400;16.920;2023-05-23T12:46:05;11.10;;;6.00;;
35576;SDS011;21680;52.400;16.920;2023-05-23T12:48:31;16.80;;;7.30;;
35576;SDS011;21680;52.400;16.920;2023-05-23T12:50:57;15.10;;;8.20;;
35576;SDS011;21680;52.400;16.920;2023-05-23T12:53:22;12.90;;;7.00;;
35576;SDS011;21680;52.400;16.920;2023-05-23T12:55:48;16.80;;;7.70;;
35576;SDS011;21680;52.400;16.920;2023-05-23T12:58:13;10.30;;;6.40;;
35576;SDS011;21680;52.400;16.920;2023-05-23T13:00:38;12.10;;;7.10;;
35576;SDS011;21680;52.400;16.920;2023-05-23T13:03:03;14.20;;;7.50;;
35576;SDS011;21680;52.400;16.920;2023-05-23T13:05:33;9.70;;;6.20;;
35576;SDS011;21680;52.400;16.920;2023-05-23T13:07:59;11.50;;;7.00;;
35576;SDS011;21680;52.400;16.920;2023-05-23T13:10:24;12.60;;;7.60;;
35576;SDS011;21680;52.400;16.920;2023-05-23T13:12:49;15.00;;;8.00;;
35576;SDS011;21680;52.400;16.920;2023-05-23T13:15:14;12.40;;;8.30;;
35576;SDS011;21680;52.400;16.920;2023-05-23T13:17:40;18.00;;;9.10;;
35576;SDS011;21680;52.400;16.920;2023-05-23T13:20:06;22.30;;;10.00;;
35576;SDS011;21680;52.400;16.920;2023-05-23T13:22:33;18.60;;;10.70;;
35576;SDS011;21680;52.400;16.920;2023-05-23T13:24:58;24.50;;;10.60;;
35576;SDS011;21680;52.400;16.920;2023-05-23T13:27:23;19.50;;;9.80;;
35576;SDS011;21680;52.400;16.920;2023-05-23T13:29:49;15.30;;;9.30;;
35576;SDS011;21680;52.400;16.920;2023-05-23T13:32:14;16.40;;;8.70;;
35576;SDS011;21680;52.400;16.920;2023-05-23T13:34:40;16.10;;;8.70;;
35576;SDS011;21680;52.400;16.920;2023-05-23T13:37:06;15.30;;;9.60;;
35576;SDS011;21680;52.400;16.920;2023-05-23T13:39:31;19.90;;;9.80;;
35576;SDS011;21680;52.400;16.920;2023-05-23T13:41:56;21.00;;;9.60;;
35576;SDS011;21680;52.400;16.920;2023-05-23T13:44:22;20.00;;;9.70;;
35576;SDS011;21680;52.400;16.920;2023-05-23T13:46:47;21.80;;;10.40;;
35576;SDS011;21680;52.400;16.920;2023-05-23T13:49:12;11.10;;;7.70;;
35576;SDS011;21680;52.400;16.920;2023-05-23T13:51:38;11.60;;;7.50;;
35576;SDS011;21680;52.400;16.920;2023-05-23T13:54:03;16.80;;;8.00;;
35576;SDS011;21680;52.400;16.920;2023-05-23T13:56:29;14.80;;;8.30;;
35576;SDS011;21680;52.400;16.920;2023-05-23T13:58:56;13.00;;;8.80;;
35576;SDS011;21680;52.400;16.920;2023-05-23T14:01:21;15.70;;;8.30;;
35576;SDS011;21680;52.400;16.920;2023-05-23T14:03:48;17.40;;;8.50;;
35576;SDS011;21680;52.400;16.920;2023-05-23T14:06:13;12.00;;;8.20;;
35576;SDS011;21680;52.400;16.920;2023-05-23T14:08:38;15.50;;;8.80;;
35576;SDS011;21680;52.400;16.920;2023-05-23T14:11:04;13.90;;;9.10;;
35576;SDS011;21680;52.400;16.920;2023-05-23T14:13:29;13.30;;;9.40;;
35576;SDS011;21680;52.400;16.920;2023-05-23T14:15:54;16.50;;;9.10;;
35576;SDS011;21680;52.400;16.920;2023-05-23T14:18:25;12.30;;;8.60;;
35576;SDS011;21680;52.400;16.920;2023-05-23T14:23:15;14.60;;;9.10;;
35576;SDS011;21680;52.400;16.920;2023-05-23T14:25:41;12.30;;;8.00;;
35576;SDS011;21680;52.400;16.920;2023-05-23T14:28:06;14.50;;;8.70;;
35576;SDS011;21680;52.400;16.920;2023-05-23T14:30:31;14.30;;;8.60;;
35576;SDS011;21680;52.400;16.920;2023-05-23T14:32:57;13.60;;;8.60;;
35576;SDS011;21680;52.400;16.920;2023-05-23T14:35:22;13.30;;;7.40;;
35576;SDS011;21680;52.400;16.920;2023-05-23T14:37:49;10.20;;;7.70;;
35576;SDS011;21680;52.400;16.920;2023-05-23T14:40:17;11.30;;;7.70;;
35576;SDS011;21680;52.400;16.920;2023-05-23T14:42:43;15.60;;;8.30;;
35576;SDS011;21680;52.400;16.920;2023-05-23T14:45:09;15.70;;;8.40;;
35576;SDS011;21680;52.400;16.920;2023-05-23T14:47:38;12.80;;;8.20;;